HKML

Malindi Airport

Malindi, Kenya
METAR HKML 211700Z 18007KT 9999 SCT022TCU 26/23 Q1016
Observed Flight Rules
Jun-21 @ 17:00 UTC (an hour ago) Visual Flight Rules
Wind Visibility Clouds
180° at 7 knots 10,000+ meters
  • Scattered at 2,200' AGL
Temperatures Readings
Current 26°C / 79°F
Dewpoint 23°C / 73°F
Humidity 84%
Altimeter 30" Hg
Pressure 1016 hPa
Elevation 23
METAR HKML 211700Z 18007KT 9999 SCT022TCU 26/23 Q1016
Observed Flight Rules
Jun-21 @ 17:00 UTC
(an hour ago)
VFR
Wind Visibility
180° at 7 knots 10,000+ meters
Clouds
  • Scattered at 2,200' AGL
Temperature Dewpoint
26°C / 79°F 23°C / 73°F
Humidity Altimeter Pressure
84% 30" Hg 1016 hPa